createdAt,value
2023-03-02T00:01:56.630Z,11.90
2023-03-02T00:04:28.707Z,12.33
2023-03-02T00:07:00.742Z,12.07
2023-03-02T00:09:29.880Z,12.70
2023-03-02T00:11:58.427Z,12.40
2023-03-02T00:14:26.965Z,12.47
2023-03-02T00:16:56.554Z,12.07
2023-03-02T00:19:24.860Z,10.57
2023-03-02T00:21:53.087Z,13.30
2023-03-02T00:24:21.358Z,11.67
2023-03-02T00:26:49.602Z,12.10
2023-03-02T00:29:17.867Z,12.87
2023-03-02T00:31:46.144Z,11.77
2023-03-02T00:34:16.883Z,12.03
2023-03-02T00:36:45.131Z,11.57
2023-03-02T00:39:13.396Z,12.03
2023-03-02T00:41:41.643Z,11.83
2023-03-02T00:44:09.840Z,12.03
2023-03-02T00:46:38.123Z,11.37
2023-03-02T00:49:06.371Z,11.20
2023-03-02T00:51:36.319Z,11.83
2023-03-02T00:54:04.839Z,11.60
2023-03-02T00:56:33.426Z,12.37
2023-03-02T00:59:06.688Z,10.90
2023-03-02T01:01:34.998Z,11.73
2023-03-02T01:04:03.230Z,11.27
2023-03-02T01:06:31.917Z,11.00
2023-03-02T01:09:01.695Z,11.43
2023-03-02T01:11:29.944Z,11.40
2023-03-02T01:13:58.354Z,11.43
2023-03-02T01:16:26.685Z,11.40
2023-03-02T01:18:54.986Z,11.20
2023-03-02T01:21:23.279Z,10.70
2023-03-02T01:23:51.786Z,10.77
2023-03-02T01:26:21.418Z,11.60
2023-03-02T01:28:51.018Z,11.07
2023-03-02T01:31:19.270Z,10.50
2023-03-02T01:33:47.735Z,10.50
2023-03-02T01:36:17.012Z,10.60
2023-03-02T01:38:46.812Z,11.10
2023-03-02T01:41:15.191Z,10.83
2023-03-02T01:43:44.856Z,10.37
2023-03-02T01:46:17.822Z,10.00
2023-03-02T01:48:48.753Z,11.20
2023-03-02T01:51:22.330Z,10.87
2023-03-02T01:53:55.380Z,10.13
2023-03-02T01:56:28.212Z,10.30
2023-03-02T01:59:02.571Z,10.77
2023-03-02T02:01:33.946Z,10.13
2023-03-02T02:04:02.924Z,10.50
2023-03-02T02:06:36.571Z,10.60
2023-03-02T02:09:08.312Z,10.43
2023-03-02T02:11:36.718Z,9.60
2023-03-02T02:14:07.064Z,11.87
2023-03-02T02:16:36.792Z,11.07
2023-03-02T02:19:13.966Z,10.37
2023-03-02T02:21:42.369Z,10.63
2023-03-02T02:24:15.225Z,9.20
2023-03-02T02:26:49.163Z,10.73
2023-03-02T02:29:22.833Z,10.43
2023-03-02T02:31:56.415Z,10.57
2023-03-02T02:34:31.968Z,10.50
2023-03-02T02:37:08.115Z,11.13
2023-03-02T02:39:40.507Z,9.73
2023-03-02T02:42:16.260Z,9.83
2023-03-02T02:44:44.697Z,11.40
2023-03-02T02:47:19.136Z,10.77
2023-03-02T02:49:50.115Z,10.60
2023-03-02T02:52:22.374Z,10.17
2023-03-02T02:54:54.092Z,11.40
2023-03-02T02:57:27.439Z,11.20
2023-03-02T02:59:59.762Z,11.37
2023-03-02T03:02:30.885Z,12.03
2023-03-02T03:05:03.868Z,10.30
2023-03-02T03:07:33.658Z,11.00
2023-03-02T03:10:06.671Z,10.53
2023-03-02T03:12:36.668Z,10.63
2023-03-02T03:15:06.975Z,11.23
2023-03-02T03:17:35.252Z,10.87
2023-03-02T03:20:07.589Z,11.10
2023-03-02T03:22:36.672Z,11.20
2023-03-02T03:25:06.004Z,10.97
2023-03-02T03:27:35.597Z,11.87
2023-03-02T03:30:04.771Z,11.27
2023-03-02T03:32:35.493Z,11.50
2023-03-02T03:35:08.478Z,11.43
2023-03-02T03:37:37.485Z,11.60
2023-03-02T03:40:09.306Z,10.87
2023-03-02T03:42:39.829Z,10.20
2023-03-02T03:45:09.736Z,10.60
2023-03-02T03:47:38.583Z,10.90
2023-03-02T03:50:08.479Z,10.97
2023-03-02T03:52:36.697Z,10.97
2023-03-02T03:55:06.357Z,10.93
2023-03-02T03:57:34.602Z,11.57
2023-03-02T04:00:08.027Z,10.73
2023-03-02T04:02:36.327Z,10.90
2023-03-02T04:05:06.491Z,11.43
2023-03-02T04:07:34.839Z,11.60
2023-03-02T04:10:04.415Z,10.83
2023-03-02T04:12:32.927Z,10.93
2023-03-02T04:15:02.838Z,10.23
2023-03-02T04:17:31.256Z,10.67
2023-03-02T04:19:59.801Z,11.23
2023-03-02T04:22:28.686Z,10.13
2023-03-02T04:24:56.976Z,11.13
2023-03-02T04:27:25.251Z,11.07
2023-03-02T04:29:53.775Z,10.90
2023-03-02T04:32:23.651Z,10.83
2023-03-02T04:34:51.951Z,10.73
2023-03-02T04:37:20.341Z,11.33
2023-03-02T04:39:51.534Z,10.50
2023-03-02T04:42:20.313Z,10.37
2023-03-02T04:44:48.712Z,10.93
2023-03-02T04:47:17.120Z,11.43
2023-03-02T04:49:46.711Z,11.73
2023-03-02T04:52:14.902Z,10.67
2023-03-02T04:54:43.116Z,11.07
2023-03-02T04:57:11.367Z,11.17
2023-03-02T04:59:39.649Z,10.93
2023-03-02T05:02:08.315Z,10.30
2023-03-02T05:04:36.573Z,10.80
2023-03-02T05:07:06.300Z,11.43
2023-03-02T05:09:34.527Z,10.87
2023-03-02T05:12:03.342Z,10.97
2023-03-02T05:14:32.064Z,11.23
2023-03-02T05:17:00.536Z,11.67
2023-03-02T05:19:28.924Z,11.43
2023-03-02T05:21:57.526Z,11.10
2023-03-02T05:24:27.727Z,11.60
2023-03-02T05:26:56.061Z,11.53
2023-03-02T05:29:24.404Z,10.23
2023-03-02T05:31:52.814Z,10.57
2023-03-02T05:34:21.241Z,12.20
2023-03-02T05:36:49.493Z,12.57
2023-03-02T05:39:17.811Z,11.03
2023-03-02T05:41:47.388Z,11.70
2023-03-02T05:44:16.201Z,10.40
2023-03-02T05:46:44.487Z,11.47
2023-03-02T05:49:12.749Z,11.53
2023-03-02T05:51:40.959Z,11.00
2023-03-02T05:54:09.200Z,10.67
2023-03-02T05:56:37.469Z,11.27
2023-03-02T05:59:07.046Z,10.00
2023-03-02T06:01:36.856Z,10.83
2023-03-02T06:04:05.271Z,11.27
2023-03-02T06:06:34.298Z,12.03
2023-03-02T06:09:02.724Z,11.77
2023-03-02T06:11:31.379Z,11.73
2023-03-02T06:13:59.591Z,13.83
2023-03-02T06:16:29.256Z,11.67
2023-03-02T06:18:57.631Z,11.33
2023-03-02T06:21:25.989Z,12.43
2023-03-02T06:23:54.253Z,11.13
2023-03-02T06:26:22.736Z,11.73
2023-03-02T06:28:53.136Z,11.67
2023-03-02T06:31:22.462Z,11.53
2023-03-02T06:33:52.230Z,12.10
2023-03-02T06:36:20.560Z,11.23
2023-03-02T06:38:48.892Z,11.67
2023-03-02T06:41:17.847Z,12.53
2023-03-02T06:43:46.241Z,11.80
2023-03-02T06:46:14.558Z,13.37
2023-03-02T06:48:42.899Z,12.77
2023-03-02T06:51:13.274Z,12.53
2023-03-02T06:53:41.501Z,14.17
2023-03-02T06:56:09.856Z,13.90
2023-03-02T06:58:38.529Z,14.30
2023-03-02T07:01:08.842Z,13.20
2023-03-02T07:03:37.263Z,12.57
2023-03-02T07:06:05.977Z,12.20
2023-03-02T07:08:35.976Z,13.60
2023-03-02T07:11:07.555Z,13.97
2023-03-02T07:13:37.967Z,13.10
2023-03-02T07:16:09.612Z,11.93
2023-03-02T07:18:38.141Z,12.53
2023-03-02T07:21:07.348Z,12.73
2023-03-02T07:23:37.336Z,12.77
2023-03-02T07:26:08.599Z,13.53
2023-03-02T07:28:39.524Z,13.67
2023-03-02T07:31:08.509Z,14.17
2023-03-02T07:33:37.221Z,13.77
2023-03-02T07:36:07.111Z,13.97
2023-03-02T07:38:38.970Z,12.43
2023-03-02T07:41:11.114Z,12.33
2023-03-02T07:43:39.801Z,11.50
2023-03-02T07:46:08.562Z,12.07
2023-03-02T07:48:37.017Z,11.17
2023-03-02T07:51:07.637Z,12.60
2023-03-02T07:53:38.296Z,11.50
2023-03-02T07:56:11.423Z,12.67
2023-03-02T07:58:39.975Z,12.10
2023-03-02T08:01:08.932Z,10.73
2023-03-02T08:03:37.308Z,12.20
2023-03-02T08:06:11.015Z,11.43
2023-03-02T08:08:40.675Z,10.30
2023-03-02T08:11:11.220Z,10.03
2023-03-02T08:13:39.648Z,9.33
2023-03-02T08:16:10.966Z,9.67
2023-03-02T08:18:40.449Z,8.80
2023-03-02T08:21:14.591Z,8.37
2023-03-02T08:23:44.472Z,9.77
2023-03-02T08:26:15.295Z,8.73
2023-03-02T08:28:45.446Z,8.37
2023-03-02T08:31:14.290Z,8.70
2023-03-02T08:33:42.612Z,9.03
2023-03-02T08:36:15.016Z,8.50
2023-03-02T08:38:45.479Z,10.27
2023-03-02T08:41:15.826Z,7.77
2023-03-02T08:43:44.378Z,7.37
2023-03-02T08:46:14.653Z,6.43
2023-03-02T08:48:43.390Z,6.87
2023-03-02T08:51:15.392Z,7.40
2023-03-02T08:53:47.697Z,6.33
2023-03-02T08:56:18.516Z,6.90
2023-03-02T08:58:48.414Z,6.83
2023-03-02T09:01:18.760Z,6.57
2023-03-02T09:03:47.331Z,7.47
2023-03-02T09:06:16.060Z,6.73
2023-03-02T09:08:46.384Z,6.87
2023-03-02T09:11:15.156Z,7.30
2023-03-02T09:13:43.739Z,5.80
2023-03-02T09:16:13.033Z,6.40
2023-03-02T09:18:42.077Z,6.97
2023-03-02T09:21:11.388Z,6.70
2023-03-02T09:23:39.682Z,8.80
2023-03-02T09:26:09.833Z,7.17
2023-03-02T09:28:38.990Z,7.23
2023-03-02T09:31:09.545Z,6.53
2023-03-02T09:33:38.044Z,7.30
2023-03-02T09:36:11.725Z,6.50
2023-03-02T09:38:40.014Z,6.60
2023-03-02T09:42:06.102Z,7.00
2023-03-02T09:44:58.344Z,6.70
2023-03-02T09:47:35.999Z,7.30
2023-03-02T09:50:23.168Z,6.77
2023-03-02T09:53:08.036Z,6.47
2023-03-02T09:55:38.544Z,6.10
2023-03-02T09:58:16.208Z,6.33
2023-03-02T10:00:46.536Z,6.10
2023-03-02T10:03:20.337Z,6.40
2023-03-02T10:05:51.218Z,6.37
2023-03-02T10:08:23.891Z,5.97
2023-03-02T10:11:01.287Z,5.67
2023-03-02T10:13:36.185Z,5.57
2023-03-02T10:16:20.661Z,5.33
2023-03-02T10:18:55.157Z,5.67
2023-03-02T10:21:29.445Z,6.30
2023-03-02T10:24:05.648Z,5.47
2023-03-02T10:26:41.870Z,6.13
2023-03-02T10:29:51.261Z,5.60
2023-03-02T10:32:23.728Z,5.57
2023-03-02T10:34:55.229Z,6.03
2023-03-02T10:37:27.803Z,6.00
2023-03-02T10:39:56.867Z,5.93
2023-03-02T10:42:32.478Z,5.90
2023-03-02T10:45:12.540Z,5.83
2023-03-02T10:47:40.922Z,5.77
2023-03-02T10:50:23.397Z,6.27
2023-03-02T10:53:00.222Z,5.43
2023-03-02T10:55:29.319Z,5.47
2023-03-02T10:58:05.617Z,6.47
2023-03-02T11:00:36.838Z,5.40
2023-03-02T11:03:18.868Z,5.80
2023-03-02T11:05:47.785Z,5.80
2023-03-02T11:08:19.896Z,6.13
2023-03-02T11:10:56.996Z,5.57
2023-03-02T11:13:31.342Z,5.50
2023-03-02T11:16:03.718Z,5.80
2023-03-02T11:18:38.557Z,6.60
2023-03-02T11:21:12.979Z,5.83
2023-03-02T11:23:57.993Z,5.97
2023-03-02T11:26:30.055Z,6.13
2023-03-02T11:29:02.295Z,6.73
2023-03-02T11:31:45.323Z,6.07
2023-03-02T11:34:42.871Z,7.27
2023-03-02T11:37:20.040Z,7.20
2023-03-02T11:40:10.862Z,6.40
2023-03-02T11:42:42.595Z,8.10
2023-03-02T11:45:21.898Z,6.63
2023-03-02T11:48:02.496Z,7.30
2023-03-02T11:50:32.421Z,6.67
2023-03-02T11:53:04.801Z,5.70
2023-03-02T11:55:37.592Z,7.10
2023-03-02T11:58:07.129Z,6.77
2023-03-02T12:00:38.010Z,7.00
2023-03-02T12:03:21.672Z,6.90
2023-03-02T12:06:05.247Z,6.33
2023-03-02T12:08:40.332Z,6.93
2023-03-02T12:11:30.995Z,6.40
2023-03-02T12:14:04.018Z,6.63
2023-03-02T12:16:40.977Z,6.67
2023-03-02T12:19:29.108Z,6.50
2023-03-02T12:22:00.485Z,5.87
2023-03-02T12:24:31.923Z,6.00
2023-03-02T12:27:06.677Z,6.23
2023-03-02T12:29:45.779Z,6.03
2023-03-02T12:32:25.708Z,5.90
2023-03-02T12:35:00.651Z,6.13
2023-03-02T12:37:33.624Z,6.23
2023-03-02T12:40:33.596Z,6.30
2023-03-02T12:43:33.616Z,6.03
2023-03-02T12:46:37.401Z,5.53
2023-03-02T12:49:28.680Z,6.57
2023-03-02T12:51:59.143Z,6.03
2023-03-02T12:54:30.367Z,6.37
2023-03-02T12:57:08.961Z,5.80
2023-03-02T12:59:38.150Z,5.10
2023-03-02T13:02:18.182Z,5.70
2023-03-02T13:04:53.708Z,5.90
2023-03-02T13:07:26.977Z,5.50
2023-03-02T13:09:58.969Z,5.97
2023-03-02T13:12:29.323Z,6.33
2023-03-02T13:14:59.893Z,5.63
2023-03-02T13:17:31.359Z,5.37
2023-03-02T13:20:00.964Z,5.20
2023-03-02T13:22:31.256Z,5.53
2023-03-02T13:25:02.270Z,5.27
2023-03-02T13:27:33.867Z,4.97
2023-03-02T13:30:12.669Z,6.53
2023-03-02T13:32:43.284Z,5.00
2023-03-02T13:35:27.397Z,5.10
2023-03-02T13:38:04.497Z,4.93
2023-03-02T13:40:42.936Z,5.13
2023-03-02T13:43:39.515Z,4.47
2023-03-02T13:46:27.043Z,5.03
2023-03-02T13:49:09.189Z,5.57
2023-03-02T13:51:41.936Z,5.40
2023-03-02T13:54:22.479Z,5.40
2023-03-02T13:56:52.139Z,4.27
2023-03-02T13:59:22.750Z,5.63
2023-03-02T14:01:52.135Z,5.03
2023-03-02T14:04:23.426Z,4.87
2023-03-02T14:06:53.415Z,4.73
2023-03-02T14:09:23.338Z,5.30
2023-03-02T14:11:54.942Z,5.00
2023-03-02T14:14:26.544Z,5.70
2023-03-02T14:16:54.808Z,4.80
2023-03-02T14:19:23.063Z,4.90
2023-03-02T14:21:51.523Z,5.20
2023-03-02T14:24:19.873Z,4.50
2023-03-02T14:26:51.387Z,5.30
2023-03-02T14:29:26.151Z,5.40
2023-03-02T14:31:55.258Z,5.40
2023-03-02T14:34:23.964Z,5.20
2023-03-02T14:36:55.863Z,4.90
2023-03-02T14:39:31.954Z,5.37
2023-03-02T14:42:01.710Z,5.30
2023-03-02T14:44:30.206Z,5.80
2023-03-02T14:46:58.553Z,5.30
2023-03-02T14:49:26.928Z,6.00
2023-03-02T14:52:01.722Z,5.63
2023-03-02T14:54:37.788Z,5.13
2023-03-02T14:57:14.441Z,5.03
2023-03-02T14:59:42.756Z,5.23
2023-03-02T15:02:24.384Z,4.90
2023-03-02T15:04:56.541Z,5.73
2023-03-02T15:07:26.258Z,5.90
2023-03-02T15:09:55.914Z,5.83
2023-03-02T15:12:25.847Z,5.23
2023-03-02T15:14:54.463Z,5.63
2023-03-02T15:17:22.844Z,5.37
2023-03-02T15:19:51.163Z,5.43
2023-03-02T15:22:19.541Z,4.80
2023-03-02T15:24:47.938Z,4.70
2023-03-02T15:27:16.564Z,5.33
2023-03-02T15:29:48.120Z,5.00
2023-03-02T15:32:17.255Z,4.60
2023-03-02T15:34:45.970Z,5.60
2023-03-02T15:37:14.298Z,4.80
2023-03-02T15:39:44.510Z,5.03
2023-03-02T15:42:14.068Z,5.43
2023-03-02T15:44:42.490Z,8.63
2023-03-02T15:47:13.113Z,31.80
2023-03-02T15:49:41.955Z,11.27
2023-03-02T15:52:11.854Z,5.57
2023-03-02T15:54:40.297Z,4.73
2023-03-02T15:57:10.200Z,5.80
2023-03-02T15:59:38.596Z,9.63
2023-03-02T16:02:07.001Z,5.30
2023-03-02T16:04:36.789Z,5.00
2023-03-02T16:07:05.176Z,7.43
2023-03-02T16:09:34.337Z,6.17
2023-03-02T16:12:02.663Z,5.23
2023-03-02T16:14:31.056Z,5.60
2023-03-02T16:16:59.433Z,5.00
2023-03-02T16:19:27.807Z,5.37
2023-03-02T16:21:57.604Z,5.17
2023-03-02T16:24:26.438Z,6.10
2023-03-02T16:26:55.016Z,10.40
2023-03-02T16:29:24.205Z,8.93
2023-03-02T16:31:52.844Z,8.13
2023-03-02T16:34:21.356Z,8.60
2023-03-02T16:36:50.035Z,26.97
2023-03-02T16:39:19.725Z,12.07
2023-03-02T16:41:48.156Z,16.00
2023-03-02T16:44:17.081Z,7.40
2023-03-02T16:46:45.527Z,7.30
2023-03-02T16:49:15.063Z,6.07
2023-03-02T16:51:44.219Z,6.00
2023-03-02T16:54:16.348Z,6.50
2023-03-02T16:56:47.524Z,7.27
2023-03-02T16:59:16.061Z,7.27
2023-03-02T17:01:44.790Z,7.63
2023-03-02T17:04:13.187Z,9.87
2023-03-02T17:06:59.954Z,9.50
2023-03-02T17:09:29.096Z,11.70
2023-03-02T17:11:59.249Z,13.90
2023-03-02T17:14:27.932Z,13.87
2023-03-02T17:16:57.905Z,12.33
2023-03-02T17:19:29.493Z,9.83
2023-03-02T17:21:59.178Z,10.20
2023-03-02T17:24:28.084Z,15.13
2023-03-02T17:26:58.152Z,11.80
2023-03-02T17:29:26.550Z,14.00
2023-03-02T17:31:55.387Z,11.33
2023-03-02T17:34:24.157Z,11.63
2023-03-02T17:36:52.448Z,12.73
2023-03-02T17:39:20.928Z,16.43
2023-03-02T17:41:49.322Z,17.30
2023-03-02T17:44:19.062Z,15.97
2023-03-02T17:46:47.645Z,12.17
2023-03-02T17:49:15.991Z,9.80
2023-03-02T17:51:44.349Z,6.80
2023-03-02T17:54:12.749Z,7.10
2023-03-02T17:56:41.233Z,8.03
2023-03-02T17:59:09.766Z,7.30
2023-03-02T18:01:39.489Z,7.23
2023-03-02T18:04:08.097Z,7.63
2023-03-02T18:06:36.721Z,10.80
2023-03-02T18:09:05.326Z,8.73
2023-03-02T18:11:34.355Z,8.30
2023-03-02T18:14:02.753Z,8.17
2023-03-02T18:16:31.405Z,18.73
2023-03-02T18:19:01.112Z,29.23
2023-03-02T18:21:30.933Z,14.63
2023-03-02T18:23:59.697Z,8.63
2023-03-02T18:26:27.972Z,9.77
2023-03-02T18:28:56.282Z,8.93
2023-03-02T18:31:25.164Z,8.57
2023-03-02T18:33:54.467Z,7.90
2023-03-02T18:36:24.093Z,8.33
2023-03-02T18:38:53.017Z,7.93
2023-03-02T18:41:21.873Z,8.87
2023-03-02T18:43:50.888Z,10.10
2023-03-02T18:46:22.384Z,9.70
2023-03-02T18:48:51.358Z,9.47
2023-03-02T18:51:20.299Z,10.03
2023-03-02T18:53:51.205Z,8.60
2023-03-02T18:56:19.979Z,8.50
2023-03-02T18:58:49.574Z,9.63
2023-03-02T19:01:18.002Z,9.33
2023-03-02T19:03:46.857Z,9.77
2023-03-02T19:06:16.501Z,10.17
2023-03-02T19:08:45.106Z,9.47
2023-03-02T19:11:14.863Z,12.10
2023-03-02T19:13:43.196Z,12.30
2023-03-02T19:16:11.519Z,13.47
2023-03-02T19:18:40.191Z,11.27
2023-03-02T19:21:08.799Z,11.30
2023-03-02T19:23:37.291Z,10.17
2023-03-02T19:26:06.039Z,10.67
2023-03-02T19:28:37.192Z,11.07
2023-03-02T19:31:08.861Z,9.27
2023-03-02T19:33:37.489Z,8.37
2023-03-02T19:36:06.874Z,8.57
2023-03-02T19:38:37.844Z,9.40
2023-03-02T19:41:06.563Z,11.63
2023-03-02T19:43:36.204Z,12.07
2023-03-02T19:46:05.262Z,12.83
2023-03-02T19:48:35.599Z,13.77
2023-03-02T19:51:05.043Z,11.57
2023-03-02T19:53:33.899Z,11.90
2023-03-02T19:56:02.684Z,11.53
2023-03-02T19:58:33.179Z,11.80
2023-03-02T20:01:03.713Z,11.10
2023-03-02T20:03:32.270Z,12.50
2023-03-02T20:06:00.534Z,12.77
2023-03-02T20:08:29.032Z,12.10
2023-03-02T20:10:57.304Z,11.37
2023-03-02T20:13:27.232Z,10.73
2023-03-02T20:15:55.604Z,10.70
2023-03-02T20:18:25.250Z,10.13
2023-03-02T20:20:53.664Z,9.77
2023-03-02T20:23:21.950Z,10.27
2023-03-02T20:25:50.447Z,9.90
2023-03-02T20:28:23.657Z,9.93
2023-03-02T20:30:56.612Z,9.50
2023-03-02T20:33:32.813Z,9.70
2023-03-02T20:36:03.125Z,8.80
2023-03-02T20:38:36.634Z,10.60
2023-03-02T20:41:06.405Z,11.33
2023-03-02T20:43:35.809Z,10.93
2023-03-02T20:46:05.292Z,10.07
2023-03-02T20:48:35.249Z,10.17
2023-03-02T20:51:04.195Z,9.63
2023-03-02T20:53:32.498Z,9.90
2023-03-02T20:56:00.833Z,10.33
2023-03-02T20:58:29.291Z,10.67
2023-03-02T21:00:58.563Z,10.67
2023-03-02T21:03:27.112Z,10.80
2023-03-02T21:05:57.698Z,9.87
2023-03-02T21:08:26.813Z,9.53
2023-03-02T21:10:55.148Z,9.93
2023-03-02T21:13:23.534Z,10.00
2023-03-02T21:15:51.903Z,10.37
2023-03-02T21:18:20.239Z,9.43
2023-03-02T21:20:48.524Z,9.47
2023-03-02T21:23:18.272Z,9.50
2023-03-02T21:25:47.292Z,10.73
2023-03-02T21:28:15.568Z,9.93
2023-03-02T21:30:43.812Z,10.17
2023-03-02T21:33:12.082Z,11.57
2023-03-02T21:35:40.475Z,9.57
2023-03-02T21:38:09.433Z,9.87
2023-03-02T21:40:45.725Z,9.93
2023-03-02T21:43:16.169Z,10.73
2023-03-02T21:45:44.477Z,9.73
2023-03-02T21:48:14.860Z,9.20
2023-03-02T21:50:43.794Z,8.97
2023-03-02T21:53:12.186Z,7.87
2023-03-02T21:55:42.350Z,8.67
2023-03-02T21:58:11.573Z,8.53
2023-03-02T22:00:45.504Z,9.10
2023-03-02T22:03:14.383Z,8.27
2023-03-02T22:05:43.068Z,8.60
2023-03-02T22:08:14.992Z,8.47
2023-03-02T22:10:46.879Z,29.33
2023-03-02T22:13:23.692Z,16.37
2023-03-02T22:15:58.107Z,14.60
2023-03-02T22:18:28.561Z,14.33
2023-03-02T22:20:56.936Z,13.33
2023-03-02T22:23:27.915Z,10.57
2023-03-02T22:26:14.152Z,11.27
2023-03-02T22:28:42.482Z,10.83
2023-03-02T22:31:20.327Z,11.67
2023-03-02T22:33:49.369Z,12.23
2023-03-02T22:36:23.454Z,13.77
2023-03-02T22:38:52.516Z,12.63
2023-03-02T22:41:22.255Z,10.83
2023-03-02T22:43:52.935Z,10.43
2023-03-02T22:46:22.856Z,11.83
2023-03-02T22:48:53.564Z,12.90
2023-03-02T22:51:24.869Z,13.03
2023-03-02T22:53:56.015Z,13.23
2023-03-02T22:56:38.560Z,12.60
2023-03-02T22:59:15.615Z,12.47
2023-03-02T23:01:46.120Z,12.93
2023-03-02T23:04:22.186Z,11.10
2023-03-02T23:06:53.161Z,12.03
2023-03-02T23:09:25.089Z,12.37
2023-03-02T23:11:57.826Z,11.97
2023-03-02T23:14:28.745Z,11.87
2023-03-02T23:17:01.601Z,11.30
2023-03-02T23:19:32.295Z,12.33
2023-03-02T23:22:00.584Z,12.63
2023-03-02T23:24:28.882Z,12.60
2023-03-02T23:26:58.564Z,12.00
2023-03-02T23:29:26.861Z,13.63
2023-03-02T23:31:55.293Z,12.00
2023-03-02T23:34:23.631Z,14.55
2023-03-02T23:36:52.033Z,12.23
2023-03-02T23:39:20.330Z,11.70
2023-03-02T23:41:48.629Z,12.23
2023-03-02T23:44:19.285Z,11.50
2023-03-02T23:46:47.951Z,10.57
2023-03-02T23:49:16.856Z,12.93
2023-03-02T23:51:45.214Z,12.70
2023-03-02T23:54:14.281Z,14.87
2023-03-02T23:56:42.596Z,14.87
2023-03-02T23:59:10.899Z,14.47
